createdAt,value
2018-12-26T00:02:12.720Z,100871.44
2018-12-26T00:05:02.613Z,100841.72
2018-12-26T00:07:52.392Z,100854.91
2018-12-26T00:10:42.194Z,100846.61
2018-12-26T00:13:43.805Z,100841.09
2018-12-26T00:16:15.423Z,100841.09
2018-12-26T00:19:05.241Z,100846.30
2018-12-26T00:22:06.598Z,100854.67
2018-12-26T00:24:36.964Z,100854.67
2018-12-26T00:27:07.378Z,100849.36
2018-12-26T00:30:08.928Z,100844.20
2018-12-26T00:32:52.697Z,100849.44
2018-12-26T00:35:36.703Z,100850.91
2018-12-26T00:38:07.424Z,100850.91
2018-12-26T00:40:57.188Z,100866.28
2018-12-26T00:43:46.978Z,100843.75
2018-12-26T00:46:38.856Z,100852.08
2018-12-26T00:49:20.498Z,100854.28
2018-12-26T00:51:53.430Z,100854.28
2018-12-26T00:54:43.199Z,100845.69
2018-12-26T00:57:33.005Z,100845.72
2018-12-26T01:00:22.776Z,100847.48
2018-12-26T01:03:24.122Z,100860.22
2018-12-26T01:05:54.603Z,100860.22
2018-12-26T01:08:44.336Z,100854.38
2018-12-26T01:11:34.126Z,100844.42
2018-12-26T01:14:23.870Z,100851.09
2018-12-26T01:17:24.994Z,100850.66
2018-12-26T01:19:57.573Z,100850.66
2018-12-26T01:22:47.334Z,100851.75
2018-12-26T01:25:37.101Z,100853.78
2018-12-26T01:28:26.909Z,100848.22
2018-12-26T01:31:16.669Z,100865.21
2018-12-26T01:34:06.463Z,100847.84
2018-12-26T01:36:56.239Z,100846.13
2018-12-26T01:39:46.043Z,100844.75
2018-12-26T01:42:35.806Z,100851.25
2018-12-26T01:45:25.609Z,100838.73
2018-12-26T01:48:15.362Z,100836.19
2018-12-26T01:51:05.167Z,100825.06
2018-12-26T01:53:55.034Z,100831.80
2018-12-26T01:56:44.833Z,100824.73
2018-12-26T01:59:34.613Z,100829.50
2018-12-26T02:02:24.393Z,100816.87
2018-12-26T02:05:14.150Z,100812.94
2018-12-26T02:08:03.931Z,100809.38
2018-12-26T02:10:53.737Z,100803.81
2018-12-26T02:13:43.571Z,100796.09
2018-12-26T02:16:13.987Z,100799.15
2018-12-26T02:19:03.777Z,100798.64
2018-12-26T02:21:53.608Z,100804.38
2018-12-26T02:24:24.043Z,100799.81
2018-12-26T02:26:54.442Z,100801.48
2018-12-26T02:29:36.338Z,100806.48
2018-12-26T02:32:06.935Z,100806.48
2018-12-26T02:34:56.745Z,100797.69
2018-12-26T02:37:46.498Z,100789.59
2018-12-26T02:40:36.310Z,100798.67
2018-12-26T02:43:26.038Z,100799.72
2018-12-26T02:48:58.913Z,100800.58
2018-12-26T02:51:48.742Z,100795.45
2018-12-26T02:54:38.571Z,100776.33
2018-12-26T02:57:28.435Z,100774.11
2018-12-26T03:00:18.289Z,100763.80
2018-12-26T03:03:08.153Z,100768.38
2018-12-26T03:05:57.954Z,100754.34
2018-12-26T03:08:40.441Z,100755.48
2018-12-26T03:11:13.176Z,100755.48
2018-12-26T03:16:45.195Z,100752.03
2018-12-26T03:19:34.943Z,100737.70
2018-12-26T03:22:24.713Z,100731.58
2018-12-26T03:25:14.556Z,100739.05
2018-12-26T03:28:04.331Z,100740.44
2018-12-26T03:30:54.096Z,100728.31
2018-12-26T03:33:43.878Z,100744.11
2018-12-26T03:36:45.338Z,100746.33
2018-12-26T03:39:27.831Z,100749.17
2018-12-26T03:41:58.289Z,100749.17
2018-12-26T03:50:54.345Z,100767.92
2018-12-26T03:53:44.133Z,100761.99
2018-12-26T03:56:20.716Z,100757.80
2018-12-26T03:59:10.531Z,100765.89
2018-12-26T04:02:12.554Z,100760.23
2018-12-26T04:04:43.483Z,100760.23
2018-12-26T04:07:33.253Z,100758.96
2018-12-26T04:10:03.628Z,100752.67
2018-12-26T04:12:53.441Z,100740.25
2018-12-26T04:15:43.202Z,100737.72
2018-12-26T04:18:32.945Z,100748.47
2018-12-26T04:21:22.719Z,100739.62
2018-12-26T04:24:12.452Z,100727.33
2018-12-26T04:27:02.318Z,100727.06
2018-12-26T04:29:52.082Z,100721.51
2018-12-26T04:32:42.765Z,100744.28
2018-12-26T04:38:14.463Z,100734.72
2018-12-26T04:40:44.857Z,100747.84
2018-12-26T04:43:15.225Z,100753.63
2018-12-26T04:46:05.020Z,100763.05
2018-12-26T04:48:54.853Z,100762.48
2018-12-26T04:51:44.652Z,100759.23
2018-12-26T04:54:34.384Z,100760.13
2018-12-26T04:57:24.958Z,100757.70
2018-12-26T05:00:07.342Z,100770.25
2018-12-26T05:02:37.717Z,100774.05
2018-12-26T05:05:27.470Z,100760.56
2018-12-26T05:08:17.251Z,100763.82
2018-12-26T05:14:09.844Z,100764.55
2018-12-26T05:16:59.654Z,100756.23
2018-12-26T05:19:49.439Z,100764.72
2018-12-26T05:22:39.195Z,100753.73
2018-12-26T05:25:09.583Z,100752.13
2018-12-26T05:27:59.370Z,100746.64
2018-12-26T05:30:49.143Z,100743.61
2018-12-26T05:33:38.876Z,100753.33
2018-12-26T05:36:28.680Z,100742.31
2018-12-26T05:39:18.429Z,100754.03
2018-12-26T05:41:48.819Z,100738.72
2018-12-26T05:44:38.654Z,100722.97
2018-12-26T05:47:28.522Z,100718.28
2018-12-26T05:50:18.319Z,100739.12
2018-12-26T05:53:08.140Z,100734.06
2018-12-26T05:55:57.929Z,100740.59
2018-12-26T05:58:47.732Z,100731.80
2018-12-26T06:01:37.496Z,100755.86
2018-12-26T06:04:07.866Z,100750.30
2018-12-26T06:06:57.683Z,100734.83
2018-12-26T06:09:47.486Z,100743.78
2018-12-26T06:12:37.287Z,100740.02
2018-12-26T06:15:27.037Z,100744.58
2018-12-26T06:18:16.839Z,100740.31
2018-12-26T06:21:06.624Z,100742.14
2018-12-26T06:23:37.071Z,100733.16
2018-12-26T06:26:26.803Z,100739.82
2018-12-26T06:29:16.598Z,100765.13
2018-12-26T06:35:27.492Z,100764.72
2018-12-26T06:38:17.285Z,100757.70
2018-12-26T06:41:07.068Z,100777.54
2018-12-26T06:43:56.841Z,100772.58
2018-12-26T06:46:46.688Z,100754.89
2018-12-26T06:49:36.556Z,100734.75
2018-12-26T06:52:26.398Z,100750.27
2018-12-26T06:55:16.206Z,100753.59
2018-12-26T06:58:05.975Z,100753.59
2018-12-26T07:00:55.778Z,100751.10
2018-12-26T07:03:45.533Z,100750.77
2018-12-26T07:06:35.352Z,100758.36
2018-12-26T07:09:25.129Z,100745.75
2018-12-26T07:12:15.012Z,100743.68
2018-12-26T07:15:04.882Z,100740.41
2018-12-26T07:17:54.653Z,100737.75
2018-12-26T07:20:44.470Z,100735.79
2018-12-26T07:23:34.238Z,100753.06
2018-12-26T07:26:24.003Z,100725.70
2018-12-26T07:29:13.777Z,100716.17
2018-12-26T07:31:44.186Z,100739.72
2018-12-26T07:34:41.972Z,100719.50
2018-12-26T07:37:17.132Z,100719.47
2018-12-26T07:40:06.894Z,100715.17
2018-12-26T07:42:56.674Z,100713.72
2018-12-26T07:45:46.457Z,100716.94
2018-12-26T07:48:36.214Z,100717.31
2018-12-26T07:51:26.001Z,100706.05
2018-12-26T07:54:15.758Z,100714.50
2018-12-26T07:57:05.563Z,100726.45
2018-12-26T07:59:55.303Z,100735.67
2018-12-26T08:02:45.090Z,100726.45
2018-12-26T08:05:34.828Z,100715.50
2018-12-26T08:08:24.615Z,100717.42
2018-12-26T08:10:54.990Z,100706.92
2018-12-26T08:13:44.819Z,100688.31
2018-12-26T08:16:34.593Z,100689.30
2018-12-26T08:19:24.383Z,100684.33
2018-12-26T08:22:13.944Z,100688.59
2018-12-26T08:25:03.720Z,100689.42
2018-12-26T08:27:53.466Z,100692.97
2018-12-26T08:30:43.303Z,100691.91
2018-12-26T08:33:44.627Z,100719.49
2018-12-26T08:36:16.618Z,100719.49
2018-12-26T08:39:25.365Z,100718.67
2018-12-26T08:42:26.611Z,100692.27
2018-12-26T08:44:58.467Z,100692.27
2018-12-26T08:50:23.348Z,100676.78
2018-12-26T08:52:54.538Z,100676.78
2018-12-26T08:55:44.301Z,100676.78
2018-12-26T08:58:35.256Z,100662.58
2018-12-26T09:01:16.939Z,100663.27
2018-12-26T09:04:06.749Z,100673.03
2018-12-26T09:06:56.571Z,100673.03
2018-12-26T09:09:46.334Z,100673.29
2018-12-26T09:12:36.082Z,100682.84
2018-12-26T09:15:44.882Z,100694.70
2018-12-26T09:18:35.597Z,100694.70
2018-12-26T09:21:37.313Z,100691.44
2018-12-26T09:24:20.798Z,100688.34
2018-12-26T09:26:51.804Z,100688.34
2018-12-26T09:29:41.571Z,100689.52
2018-12-26T09:32:31.382Z,100676.20
2018-12-26T09:35:21.123Z,100685.51
2018-12-26T09:38:11.000Z,100686.45
2018-12-26T09:41:00.742Z,100679.47
2018-12-26T09:44:02.505Z,100680.79
2018-12-26T09:46:32.878Z,100680.79
2018-12-26T09:49:22.683Z,100674.30
2018-12-26T09:51:53.034Z,100665.70
2018-12-26T09:54:23.438Z,100662.91
2018-12-26T09:57:13.203Z,100653.48
2018-12-26T10:00:02.980Z,100650.57
2018-12-26T10:02:52.772Z,100667.53
2018-12-26T10:05:23.175Z,100649.45
2018-12-26T10:08:12.935Z,100649.88
2018-12-26T10:10:56.669Z,100642.61
2018-12-26T10:13:28.741Z,100642.61
2018-12-26T10:16:18.557Z,100657.08
2018-12-26T10:19:08.355Z,100636.86
2018-12-26T10:22:11.592Z,100622.85
2018-12-26T10:24:42.896Z,100622.85
2018-12-26T10:27:32.756Z,100614.34
2018-12-26T10:30:22.540Z,100609.87
2018-12-26T10:33:12.358Z,100619.05
2018-12-26T10:42:09.226Z,100605.67
2018-12-26T10:44:58.991Z,100616.75
2018-12-26T10:47:48.805Z,100609.07
2018-12-26T10:50:38.547Z,100616.42
2018-12-26T10:53:28.346Z,100591.11
2018-12-26T10:56:18.102Z,100584.81
2018-12-26T10:59:10.322Z,100589.55
2018-12-26T11:01:59.349Z,100584.14
2018-12-26T11:04:49.121Z,100587.42
2018-12-26T11:07:38.857Z,100567.95
2018-12-26T11:10:28.675Z,100558.54
2018-12-26T11:13:18.425Z,100560.77
2018-12-26T11:16:08.215Z,100590.27
2018-12-26T11:18:58.286Z,100567.69
2018-12-26T11:21:29.154Z,100575.33
2018-12-26T11:24:18.905Z,100571.78
2018-12-26T11:27:08.710Z,100568.24
2018-12-26T11:29:58.477Z,100575.11
2018-12-26T11:32:48.242Z,100574.70
2018-12-26T11:35:38.010Z,100571.59
2018-12-26T11:38:27.791Z,100567.89
2018-12-26T11:41:17.597Z,100569.52
2018-12-26T11:44:07.435Z,100575.92
2018-12-26T11:46:57.200Z,100579.13
2018-12-26T11:49:47.004Z,100576.25
2018-12-26T11:52:36.804Z,100585.87
2018-12-26T11:55:26.561Z,100584.23
2018-12-26T11:58:16.356Z,100583.62
2018-12-26T12:00:48.392Z,100581.09
2018-12-26T12:03:38.171Z,100590.70
2018-12-26T12:06:08.623Z,100587.95
2018-12-26T12:08:58.377Z,100585.92
2018-12-26T12:14:47.859Z,100606.01
2018-12-26T12:17:36.872Z,100594.11
2018-12-26T12:20:06.810Z,100584.92
2018-12-26T12:22:37.480Z,100587.88
2018-12-26T12:25:27.231Z,100600.58
2018-12-26T12:28:17.016Z,100587.00
2018-12-26T12:31:06.812Z,100590.47
2018-12-26T12:33:56.582Z,100595.72
2018-12-26T12:37:08.062Z,100591.95
2018-12-26T12:39:57.853Z,100584.88
2018-12-26T12:42:48.183Z,100572.64
2018-12-26T12:45:19.613Z,100587.77
2018-12-26T12:48:09.409Z,100571.98
2018-12-26T12:54:14.225Z,100587.88
2018-12-26T12:57:08.845Z,100583.66
2018-12-26T13:00:00.921Z,100584.00
2018-12-26T13:02:32.936Z,100585.53
2018-12-26T13:05:22.715Z,100574.59
2018-12-26T13:08:13.303Z,100576.33
2018-12-26T13:10:55.580Z,100581.98
2018-12-26T13:13:45.362Z,100593.98
2018-12-26T13:16:35.182Z,100578.27
2018-12-26T13:19:24.943Z,100592.21
2018-12-26T13:22:14.728Z,100601.66
2018-12-26T13:25:04.641Z,100591.09
2018-12-26T13:27:54.458Z,100588.89
2018-12-26T13:30:24.868Z,100592.63
2018-12-26T13:33:14.654Z,100588.77
2018-12-26T13:39:08.250Z,100593.05
2018-12-26T13:41:58.003Z,100588.44
2018-12-26T13:44:47.843Z,100592.69
2018-12-26T13:47:37.764Z,100597.77
2018-12-26T13:50:27.523Z,100578.94
2018-12-26T13:53:17.278Z,100594.44
2018-12-26T13:56:07.081Z,100588.36
2018-12-26T13:58:56.857Z,100585.80
2018-12-26T14:04:36.003Z,100580.00
2018-12-26T14:10:28.922Z,100579.37
2018-12-26T14:13:18.685Z,100576.50
2018-12-26T14:16:08.496Z,100577.03
2018-12-26T14:18:58.263Z,100575.06
2018-12-26T14:21:48.117Z,100571.70
2018-12-26T14:24:37.958Z,100581.59
2018-12-26T14:27:29.549Z,100579.81
2018-12-26T14:30:12.243Z,100572.30
2018-12-26T14:33:02.124Z,100562.74
2018-12-26T14:36:10.907Z,100564.38
2018-12-26T14:39:00.711Z,100563.73
2018-12-26T14:41:50.483Z,100573.64
2018-12-26T14:44:40.344Z,100567.89
2018-12-26T14:47:10.728Z,100566.71
2018-12-26T14:50:00.488Z,100567.89
2018-12-26T14:52:50.256Z,100569.28
2018-12-26T14:55:40.019Z,100571.34
2018-12-26T14:58:10.479Z,100570.84
2018-12-26T15:01:00.220Z,100577.82
2018-12-26T15:03:50.018Z,100588.70
2018-12-26T15:06:39.764Z,100571.12
2018-12-26T15:09:11.777Z,100573.47
2018-12-26T15:12:20.534Z,100578.05
2018-12-26T15:15:10.308Z,100578.05
2018-12-26T15:18:19.080Z,100591.52
2018-12-26T15:21:27.767Z,100591.52
2018-12-26T15:24:17.557Z,100587.48
2018-12-26T15:27:07.362Z,100597.73
2018-12-26T15:29:49.394Z,100589.49
2018-12-26T15:32:31.987Z,100599.47
2018-12-26T15:35:03.472Z,100599.47
2018-12-26T15:38:04.178Z,100600.65
2018-12-26T15:40:35.003Z,100607.15
2018-12-26T15:43:36.332Z,100595.73
2018-12-26T15:46:19.347Z,100601.16
2018-12-26T15:48:50.349Z,100601.16
2018-12-26T15:51:40.137Z,100606.44
2018-12-26T15:54:10.528Z,100608.12
2018-12-26T15:59:58.510Z,100608.53
2018-12-26T16:02:48.294Z,100597.31
2018-12-26T16:05:38.084Z,100607.88
2018-12-26T16:08:27.868Z,100601.60
2018-12-26T16:11:18.029Z,100603.50
2018-12-26T16:14:00.637Z,100622.75
2018-12-26T16:16:43.511Z,100615.76
2018-12-26T16:19:16.449Z,100615.76
2018-12-26T16:22:06.241Z,100620.31
2018-12-26T16:24:56.020Z,100620.13
2018-12-26T16:27:46.205Z,100613.54
2018-12-26T16:30:35.982Z,100611.36
2018-12-26T16:33:25.752Z,100616.28
2018-12-26T16:36:15.561Z,100616.73
2018-12-26T16:42:26.155Z,100609.80
2018-12-26T16:45:15.931Z,100608.62
2018-12-26T16:47:46.334Z,100613.59
2018-12-26T16:50:35.740Z,100607.49
2018-12-26T16:53:25.540Z,100607.49
2018-12-26T16:56:34.311Z,100606.98
2018-12-26T16:59:24.128Z,100606.98
2018-12-26T17:02:13.920Z,100604.00
2018-12-26T17:05:15.516Z,100601.30
2018-12-26T17:07:47.561Z,100601.30
2018-12-26T17:10:48.760Z,100606.53
2018-12-26T17:13:19.772Z,100606.53
2018-12-26T17:16:09.557Z,100620.63
2018-12-26T17:19:10.879Z,100605.78
2018-12-26T17:21:42.790Z,100605.78
2018-12-26T17:24:51.554Z,100594.72
2018-12-26T17:27:41.351Z,100594.72
2018-12-26T17:30:31.109Z,100591.95
2018-12-26T17:33:32.980Z,100614.86
2018-12-26T17:36:05.728Z,100614.86
2018-12-26T17:39:07.187Z,100604.86
2018-12-26T17:41:50.872Z,100603.94
2018-12-26T17:44:22.875Z,100603.94
2018-12-26T17:47:24.405Z,100598.84
2018-12-26T17:50:12.283Z,100592.03
2018-12-26T17:52:54.525Z,100608.82
2018-12-26T17:55:37.788Z,100596.95
2018-12-26T17:58:10.431Z,100596.95
2018-12-26T18:01:22.888Z,100582.83
2018-12-26T18:04:12.672Z,100590.94
2018-12-26T18:07:02.462Z,100588.11
2018-12-26T18:10:04.352Z,100606.77
2018-12-26T18:12:35.878Z,100606.77
2018-12-26T18:15:37.646Z,100586.52
2018-12-26T18:18:08.042Z,100586.52
2018-12-26T18:21:10.560Z,100590.65
2018-12-26T18:23:53.717Z,100579.22
2018-12-26T18:26:25.945Z,100579.22
2018-12-26T18:29:34.757Z,100608.62
2018-12-26T18:32:36.197Z,100597.20
2018-12-26T18:35:19.143Z,100603.96
2018-12-26T18:37:50.083Z,100603.96
2018-12-26T18:40:39.839Z,100588.39
2018-12-26T18:43:29.617Z,100597.06
2018-12-26T18:46:19.387Z,100594.33
2018-12-26T18:49:20.521Z,100590.22
2018-12-26T18:51:50.895Z,100590.22
2018-12-26T18:54:40.673Z,100590.70
2018-12-26T18:57:11.071Z,100587.22
2018-12-26T18:59:54.616Z,100606.70
2018-12-26T19:02:26.129Z,100606.70
2018-12-26T19:05:27.274Z,100592.83
2018-12-26T19:08:10.504Z,100589.83
2018-12-26T19:10:52.942Z,100585.63
2018-12-26T19:13:23.312Z,100585.63
2018-12-26T19:16:13.152Z,100594.50
2018-12-26T19:19:14.992Z,100591.80
2018-12-26T19:21:47.315Z,100591.80
2018-12-26T19:24:48.583Z,100608.12
2018-12-26T19:27:19.251Z,100586.56
2018-12-26T19:30:20.821Z,100596.30
2018-12-26T19:33:05.034Z,100584.89
2018-12-26T19:35:36.272Z,100584.89
2018-12-26T19:38:26.046Z,100585.00
2018-12-26T19:41:15.827Z,100578.31
2018-12-26T19:44:17.464Z,100580.79
2018-12-26T19:46:59.840Z,100582.06
2018-12-26T19:49:45.626Z,100578.90
2018-12-26T19:52:28.714Z,100594.98
2018-12-26T19:54:59.492Z,100594.98
2018-12-26T19:57:49.268Z,100586.73
2018-12-26T20:00:51.165Z,100585.14
2018-12-26T20:03:23.427Z,100585.14
2018-12-26T20:06:24.757Z,100566.84
2018-12-26T20:08:56.526Z,100566.84
2018-12-26T20:11:46.360Z,100543.95
2018-12-26T20:14:36.205Z,100572.47
2018-12-26T20:17:25.971Z,100564.17
2018-12-26T20:20:15.790Z,100580.08
2018-12-26T20:23:24.564Z,100598.38
2018-12-26T20:26:26.462Z,100607.81
2018-12-26T20:28:57.574Z,100607.81
2018-12-26T20:31:47.441Z,100590.64
2018-12-26T20:34:37.265Z,100590.64
2018-12-26T20:37:27.049Z,100581.65
2018-12-26T20:40:16.895Z,100574.38
2018-12-26T20:43:06.670Z,100567.50
2018-12-26T20:46:07.738Z,100566.08
2018-12-26T20:48:51.000Z,100574.88
2018-12-26T20:51:34.020Z,100573.61
2018-12-26T20:54:17.428Z,100567.73
2018-12-26T20:56:49.698Z,100567.73
2018-12-26T20:59:51.774Z,100565.19
2018-12-26T21:02:33.979Z,100565.52
2018-12-26T21:05:04.911Z,100565.52
2018-12-26T21:08:06.263Z,100559.89
2018-12-26T21:10:47.948Z,100572.32
2018-12-26T21:13:20.804Z,100572.32
2018-12-26T21:16:22.131Z,100559.57
2018-12-26T21:18:54.840Z,100559.57
2018-12-26T21:21:44.661Z,100573.89
2018-12-26T21:24:34.466Z,100565.39
2018-12-26T21:27:24.286Z,100555.45
2018-12-26T21:30:25.639Z,100545.16
2018-12-26T21:32:56.070Z,100545.16
2018-12-26T21:36:04.873Z,100561.56
2018-12-26T21:39:05.747Z,100537.56
2018-12-26T21:41:36.954Z,100537.56
2018-12-26T21:44:26.766Z,100551.17
2018-12-26T21:47:16.796Z,100538.48
2018-12-26T21:50:07.827Z,100543.98
2018-12-26T21:52:57.618Z,100525.52
2018-12-26T21:55:59.018Z,100528.91
2018-12-26T21:58:30.745Z,100528.91
2018-12-26T22:01:31.985Z,100527.58
2018-12-26T22:04:17.287Z,100526.52
2018-12-26T22:06:49.949Z,100526.52
2018-12-26T22:09:39.750Z,100530.32
2018-12-26T22:12:29.546Z,100530.32
2018-12-26T22:15:30.639Z,100534.40
2018-12-26T22:18:14.006Z,100527.00
2018-12-26T22:20:44.771Z,100527.00
2018-12-26T22:23:34.579Z,100527.48
2018-12-26T22:26:43.183Z,100522.58
2018-12-26T22:29:10.075Z,100522.58
2018-12-26T22:31:59.812Z,100521.62
2018-12-26T22:34:49.599Z,100523.05
2018-12-26T22:37:39.355Z,100529.05
2018-12-26T22:40:29.159Z,100530.16
2018-12-26T22:43:20.192Z,100536.65
2018-12-26T22:46:10.001Z,100536.65
2018-12-26T22:49:00.760Z,100543.27
2018-12-26T22:51:43.963Z,100530.81
2018-12-26T22:54:28.500Z,100526.59
2018-12-26T22:57:12.865Z,100533.78
2018-12-26T22:59:45.272Z,100533.78
2018-12-26T23:02:46.272Z,100533.30
2018-12-26T23:05:28.699Z,100531.02
2018-12-26T23:08:12.070Z,100528.82
2018-12-26T23:10:55.264Z,100530.07
2018-12-26T23:13:26.386Z,100530.07
2018-12-26T23:16:35.195Z,100523.73
2018-12-26T23:19:36.493Z,100526.62
2018-12-26T23:22:19.330Z,100522.13
2018-12-26T23:25:02.190Z,100520.00
2018-12-26T23:27:44.361Z,100520.35
2018-12-26T23:30:29.330Z,100513.59
2018-12-26T23:33:00.300Z,100513.59
2018-12-26T23:35:50.085Z,100524.09
2018-12-26T23:38:51.980Z,100522.58
2018-12-26T23:41:34.902Z,100523.05
2018-12-26T23:44:18.621Z,100528.52
2018-12-26T23:46:49.534Z,100528.52
2018-12-26T23:49:51.067Z,100551.94
2018-12-26T23:52:23.365Z,100551.94
2018-12-26T23:55:13.158Z,100544.68
2018-12-26T23:58:15.159Z,100531.21
